sensor_id;sensor_type;location;lat;lon;timestamp;pressure;altitude;pressure_sealevel;temperature;humidity
75006;BME280;63553;51.814;4.600;2023-06-01T00:00:14;102587.09;;;13.16;77.07
75006;BME280;63553;51.814;4.600;2023-06-01T00:02:40;102588.72;;;12.36;79.38
75006;BME280;63553;51.814;4.600;2023-06-01T00:05:06;102591.63;;;13.12;77.17
75006;BME280;63553;51.814;4.600;2023-06-01T00:07:32;102600.03;;;12.49;79.10
75006;BME280;63553;51.814;4.600;2023-06-01T00:09:58;102590.88;;;13.01;77.07
75006;BME280;63553;51.814;4.600;2023-06-01T00:12:23;102577.09;;;13.76;76.08
75006;BME280;63553;51.814;4.600;2023-06-01T00:14:49;102579.44;;;14.06;72.49
75006;BME280;63553;51.814;4.600;2023-06-01T00:17:14;102585.59;;;12.42;78.64
75006;BME280;63553;51.814;4.600;2023-06-01T00:19:39;102583.34;;;12.44;80.51
75006;BME280;63553;51.814;4.600;2023-06-01T00:22:05;102579.16;;;12.42;81.81
75006;BME280;63553;51.814;4.600;2023-06-01T00:24:32;102580.50;;;12.78;78.60
75006;BME280;63553;51.814;4.600;2023-06-01T00:26:57;102566.41;;;13.41;74.55
75006;BME280;63553;51.814;4.600;2023-06-01T00:29:23;102567.22;;;12.94;77.07
75006;BME280;63553;51.814;4.600;2023-06-01T00:31:48;102569.34;;;12.78;78.05
75006;BME280;63553;51.814;4.600;2023-06-01T00:34:14;102564.44;;;12.94;78.45
75006;BME280;63553;51.814;4.600;2023-06-01T00:36:39;102569.53;;;12.87;79.67
75006;BME280;63553;51.814;4.600;2023-06-01T00:39:04;102570.47;;;13.29;79.51
75006;BME280;63553;51.814;4.600;2023-06-01T00:41:31;102566.81;;;13.05;75.75
75006;BME280;63553;51.814;4.600;2023-06-01T00:43:57;102567.81;;;12.91;76.22
75006;BME280;63553;51.814;4.600;2023-06-01T00:46:22;102566.88;;;13.66;73.21
75006;BME280;63553;51.814;4.600;2023-06-01T00:48:48;102561.38;;;13.80;71.12
75006;BME280;63553;51.814;4.600;2023-06-01T00:51:13;102575.66;;;11.92;79.65
75006;BME280;63553;51.814;4.600;2023-06-01T00:53:40;102573.47;;;12.86;75.99
75006;BME280;63553;51.814;4.600;2023-06-01T00:56:06;102578.22;;;11.84;80.11
75006;BME280;63553;51.814;4.600;2023-06-01T00:58:32;102571.88;;;12.12;79.22
75006;BME280;63553;51.814;4.600;2023-06-01T01:00:57;102562.50;;;13.60;75.67
75006;BME280;63553;51.814;4.600;2023-06-01T01:03:22;102565.31;;;13.18;76.88
75006;BME280;63553;51.814;4.600;2023-06-01T01:05:54;102554.09;;;13.60;75.47
75006;BME280;63553;51.814;4.600;2023-06-01T01:08:42;102570.56;;;14.18;71.10
75006;BME280;63553;51.814;4.600;2023-06-01T01:11:16;102569.44;;;14.97;69.64
75006;BME280;63553;51.814;4.600;2023-06-01T01:14:18;102584.59;;;12.28;77.01
75006;BME280;63553;51.814;4.600;2023-06-01T01:17:02;102579.69;;;12.49;76.35
75006;BME280;63553;51.814;4.600;2023-06-01T01:19:29;102583.09;;;12.69;79.31
75006;BME280;63553;51.814;4.600;2023-06-01T01:25:21;102582.56;;;12.00;78.40
75006;BME280;63553;51.814;4.600;2023-06-01T01:30:27;102567.69;;;12.48;77.94
75006;BME280;63553;51.814;4.600;2023-06-01T01:32:53;102581.28;;;11.87;78.55
75006;BME280;63553;51.814;4.600;2023-06-01T01:35:20;102572.66;;;12.22;76.91
75006;BME280;63553;51.814;4.600;2023-06-01T01:37:51;102579.25;;;11.98;79.00
75006;BME280;63553;51.814;4.600;2023-06-01T01:40:17;102573.22;;;13.06;78.17
75006;BME280;63553;51.814;4.600;2023-06-01T01:42:42;102583.75;;;12.27;76.62
75006;BME280;63553;51.814;4.600;2023-06-01T01:45:08;102586.06;;;11.82;78.44
75006;BME280;63553;51.814;4.600;2023-06-01T01:48:05;102565.41;;;13.31;76.55
75006;BME280;63553;51.814;4.600;2023-06-01T01:50:38;102587.28;;;12.04;78.18
75006;BME280;63553;51.814;4.600;2023-06-01T01:53:08;102589.16;;;11.70;78.90
75006;BME280;63553;51.814;4.600;2023-06-01T01:55:35;102580.78;;;12.53;79.00
75006;BME280;63553;51.814;4.600;2023-06-01T01:58:02;102579.97;;;12.76;77.13
75006;BME280;63553;51.814;4.600;2023-06-01T02:00:28;102588.53;;;12.85;75.10
75006;BME280;63553;51.814;4.600;2023-06-01T02:02:54;102576.41;;;12.70;75.67
75006;BME280;63553;51.814;4.600;2023-06-01T02:05:20;102579.78;;;12.05;78.91
75006;BME280;63553;51.814;4.600;2023-06-01T02:07:45;102577.50;;;12.07;77.32
75006;BME280;63553;51.814;4.600;2023-06-01T02:10:10;102574.50;;;11.98;77.86
75006;BME280;63553;51.814;4.600;2023-06-01T02:12:36;102558.94;;;13.55;71.91
75006;BME280;63553;51.814;4.600;2023-06-01T02:15:01;102563.81;;;12.44;75.04
75006;BME280;63553;51.814;4.600;2023-06-01T02:17:26;102571.19;;;11.96;77.29
75006;BME280;63553;51.814;4.600;2023-06-01T02:19:52;102568.31;;;12.69;74.92
75006;BME280;63553;51.814;4.600;2023-06-01T02:22:18;102564.16;;;12.38;78.33
75006;BME280;63553;51.814;4.600;2023-06-01T02:24:43;102571.31;;;12.49;75.21
75006;BME280;63553;51.814;4.600;2023-06-01T02:27:08;102562.91;;;13.06;72.78
75006;BME280;63553;51.814;4.600;2023-06-01T02:29:34;102561.41;;;12.33;76.11
75006;BME280;63553;51.814;4.600;2023-06-01T02:31:59;102562.53;;;12.32;75.88
75006;BME280;63553;51.814;4.600;2023-06-01T02:34:25;102551.34;;;12.89;74.53
75006;BME280;63553;51.814;4.600;2023-06-01T02:36:50;102550.06;;;13.05;72.43
75006;BME280;63553;51.814;4.600;2023-06-01T02:39:16;102563.69;;;11.92;77.99
75006;BME280;63553;51.814;4.600;2023-06-01T02:41:42;102559.25;;;11.86;78.32
75006;BME280;63553;51.814;4.600;2023-06-01T02:44:07;102551.06;;;12.33;75.94
75006;BME280;63553;51.814;4.600;2023-06-01T02:46:32;102544.41;;;13.15;73.74
75006;BME280;63553;51.814;4.600;2023-06-01T02:48:58;102555.91;;;13.32;72.79
75006;BME280;63553;51.814;4.600;2023-06-01T02:51:23;102561.69;;;12.65;73.79
75006;BME280;63553;51.814;4.600;2023-06-01T02:53:48;102548.53;;;13.18;74.56
75006;BME280;63553;51.814;4.600;2023-06-01T02:56:14;102552.50;;;12.59;73.59
75006;BME280;63553;51.814;4.600;2023-06-01T02:58:40;102559.09;;;12.06;76.57
75006;BME280;63553;51.814;4.600;2023-06-01T03:01:06;102561.34;;;11.60;78.97
75006;BME280;63553;51.814;4.600;2023-06-01T03:03:37;102560.53;;;12.03;76.63
75006;BME280;63553;51.814;4.600;2023-06-01T03:06:02;102560.50;;;11.69;78.39
75006;BME280;63553;51.814;4.600;2023-06-01T03:08:30;102559.06;;;11.67;78.96
75006;BME280;63553;51.814;4.600;2023-06-01T03:10:55;102548.31;;;11.50;80.11
75006;BME280;63553;51.814;4.600;2023-06-01T03:13:21;102554.63;;;12.10;78.35
75006;BME280;63553;51.814;4.600;2023-06-01T03:15:46;102546.19;;;13.01;75.06
75006;BME280;63553;51.814;4.600;2023-06-01T03:18:11;102546.47;;;13.47;73.80
75006;BME280;63553;51.814;4.600;2023-06-01T03:20:37;102558.25;;;12.10;75.94
75006;BME280;63553;51.814;4.600;2023-06-01T03:23:02;102555.88;;;12.85;75.63
75006;BME280;63553;51.814;4.600;2023-06-01T03:25:28;102553.72;;;13.48;73.66
75006;BME280;63553;51.814;4.600;2023-06-01T03:27:53;102556.88;;;12.08;75.41
75006;BME280;63553;51.814;4.600;2023-06-01T03:30:19;102566.06;;;11.69;77.75
75006;BME280;63553;51.814;4.600;2023-06-01T03:32:45;102561.03;;;11.72;76.63
75006;BME280;63553;51.814;4.600;2023-06-01T03:35:12;102558.53;;;11.70;77.04
75006;BME280;63553;51.814;4.600;2023-06-01T03:37:40;102563.22;;;12.76;76.79
75006;BME280;63553;51.814;4.600;2023-06-01T03:40:06;102556.25;;;13.26;70.41
75006;BME280;63553;51.814;4.600;2023-06-01T03:42:42;102564.56;;;12.26;74.27
75006;BME280;63553;51.814;4.600;2023-06-01T03:45:09;102565.13;;;11.30;78.07
75006;BME280;63553;51.814;4.600;2023-06-01T03:47:35;102557.88;;;11.34;78.33
75006;BME280;63553;51.814;4.600;2023-06-01T03:50:01;102558.38;;;11.95;79.06
75006;BME280;63553;51.814;4.600;2023-06-01T03:52:27;102559.94;;;11.62;78.46
75006;BME280;63553;51.814;4.600;2023-06-01T03:54:54;102566.28;;;12.17;74.87
75006;BME280;63553;51.814;4.600;2023-06-01T03:57:20;102556.31;;;11.62;76.97
75006;BME280;63553;51.814;4.600;2023-06-01T03:59:46;102561.13;;;11.46;78.10
75006;BME280;63553;51.814;4.600;2023-06-01T04:02:11;102564.63;;;11.13;79.08
75006;BME280;63553;51.814;4.600;2023-06-01T04:04:37;102564.41;;;11.58;77.70
75006;BME280;63553;51.814;4.600;2023-06-01T04:07:02;102572.22;;;11.56;78.07
75006;BME280;63553;51.814;4.600;2023-06-01T04:09:31;102569.91;;;11.79;76.89
75006;BME280;63553;51.814;4.600;2023-06-01T04:11:58;102563.16;;;11.90;77.56
75006;BME280;63553;51.814;4.600;2023-06-01T04:14:23;102556.56;;;11.65;77.62
75006;BME280;63553;51.814;4.600;2023-06-01T04:16:48;102562.41;;;11.74;77.11
75006;BME280;63553;51.814;4.600;2023-06-01T04:19:14;102562.16;;;11.65;79.04
75006;BME280;63553;51.814;4.600;2023-06-01T04:21:39;102553.22;;;11.68;78.54
75006;BME280;63553;51.814;4.600;2023-06-01T04:24:05;102563.94;;;12.87;72.09
75006;BME280;63553;51.814;4.600;2023-06-01T04:26:30;102563.34;;;11.98;75.48
75006;BME280;63553;51.814;4.600;2023-06-01T04:28:58;102559.41;;;13.19;73.84
75006;BME280;63553;51.814;4.600;2023-06-01T04:31:24;102558.03;;;14.15;71.72
75006;BME280;63553;51.814;4.600;2023-06-01T04:33:49;102560.97;;;14.24;71.92
75006;BME280;63553;51.814;4.600;2023-06-01T04:36:19;102579.38;;;12.79;72.32
75006;BME280;63553;51.814;4.600;2023-06-01T04:38:47;102577.66;;;12.54;74.97
75006;BME280;63553;51.814;4.600;2023-06-01T04:41:16;102561.25;;;13.71;71.93
75006;BME280;63553;51.814;4.600;2023-06-01T04:43:41;102567.34;;;13.31;72.49
75006;BME280;63553;51.814;4.600;2023-06-01T04:46:07;102570.00;;;13.83;68.82
75006;BME280;63553;51.814;4.600;2023-06-01T04:48:33;102572.69;;;12.51;73.52
75006;BME280;63553;51.814;4.600;2023-06-01T04:50:58;102567.88;;;13.75;72.12
75006;BME280;63553;51.814;4.600;2023-06-01T04:53:29;102565.94;;;14.27;66.78
75006;BME280;63553;51.814;4.600;2023-06-01T04:55:54;102567.75;;;13.43;71.81
75006;BME280;63553;51.814;4.600;2023-06-01T04:58:21;102561.72;;;14.48;69.70
75006;BME280;63553;51.814;4.600;2023-06-01T05:00:47;102573.50;;;12.18;74.21
75006;BME280;63553;51.814;4.600;2023-06-01T05:03:13;102582.00;;;12.03;75.41
75006;BME280;63553;51.814;4.600;2023-06-01T05:05:38;102573.69;;;11.49;76.54
75006;BME280;63553;51.814;4.600;2023-06-01T05:08:03;102578.75;;;11.37;78.10
75006;BME280;63553;51.814;4.600;2023-06-01T05:10:29;102566.94;;;12.04;76.46
75006;BME280;63553;51.814;4.600;2023-06-01T05:12:55;102572.34;;;11.85;76.57
75006;BME280;63553;51.814;4.600;2023-06-01T05:15:20;102578.03;;;11.65;77.53
75006;BME280;63553;51.814;4.600;2023-06-01T05:17:45;102581.06;;;11.79;76.75
75006;BME280;63553;51.814;4.600;2023-06-01T05:20:12;102581.81;;;11.89;77.22
75006;BME280;63553;51.814;4.600;2023-06-01T05:22:38;102580.25;;;11.68;77.57
75006;BME280;63553;51.814;4.600;2023-06-01T05:25:04;102580.22;;;11.73;77.02
75006;BME280;63553;51.814;4.600;2023-06-01T05:27:30;102583.59;;;11.65;77.32
75006;BME280;63553;51.814;4.600;2023-06-01T05:29:56;102588.06;;;11.71;77.27
75006;BME280;63553;51.814;4.600;2023-06-01T05:32:21;102577.66;;;12.54;76.99
75006;BME280;63553;51.814;4.600;2023-06-01T05:34:46;102566.28;;;13.03;71.15
75006;BME280;63553;51.814;4.600;2023-06-01T05:37:12;102581.34;;;12.50;74.12
75006;BME280;63553;51.814;4.600;2023-06-01T05:39:37;102573.44;;;12.28;76.04
75006;BME280;63553;51.814;4.600;2023-06-01T05:42:03;102562.44;;;13.84;71.42
75006;BME280;63553;51.814;4.600;2023-06-01T05:44:30;102570.75;;;13.28;73.02
75006;BME280;63553;51.814;4.600;2023-06-01T05:46:56;102584.81;;;13.65;69.45
75006;BME280;63553;51.814;4.600;2023-06-01T05:49:21;102584.31;;;12.87;73.41
75006;BME280;63553;51.814;4.600;2023-06-01T05:51:46;102582.59;;;12.62;73.06
75006;BME280;63553;51.814;4.600;2023-06-01T05:54:12;102586.28;;;12.24;75.03
75006;BME280;63553;51.814;4.600;2023-06-01T05:56:38;102587.06;;;11.96;75.32
75006;BME280;63553;51.814;4.600;2023-06-01T05:59:05;102595.25;;;12.21;74.86
75006;BME280;63553;51.814;4.600;2023-06-01T06:01:31;102594.97;;;12.17;75.00
75006;BME280;63553;51.814;4.600;2023-06-01T06:03:57;102594.72;;;12.53;72.28
75006;BME280;63553;51.814;4.600;2023-06-01T06:06:22;102581.75;;;11.99;75.68
75006;BME280;63553;51.814;4.600;2023-06-01T06:08:48;102575.44;;;12.22;75.47
75006;BME280;63553;51.814;4.600;2023-06-01T06:11:14;102579.34;;;12.55;74.66
75006;BME280;63553;51.814;4.600;2023-06-01T06:13:39;102584.72;;;12.13;75.02
75006;BME280;63553;51.814;4.600;2023-06-01T06:16:05;102572.88;;;12.60;74.77
75006;BME280;63553;51.814;4.600;2023-06-01T06:18:30;102579.72;;;12.72;74.17
75006;BME280;63553;51.814;4.600;2023-06-01T06:20:56;102566.75;;;13.15;70.52
75006;BME280;63553;51.814;4.600;2023-06-01T06:23:21;102560.97;;;13.49;71.94
75006;BME280;63553;51.814;4.600;2023-06-01T06:25:46;102566.97;;;13.80;68.72
75006;BME280;63553;51.814;4.600;2023-06-01T06:28:13;102559.94;;;13.82;70.33
75006;BME280;63553;51.814;4.600;2023-06-01T06:30:38;102563.19;;;14.73;67.59
75006;BME280;63553;51.814;4.600;2023-06-01T06:33:04;102557.53;;;13.15;71.12
75006;BME280;63553;51.814;4.600;2023-06-01T06:35:29;102564.50;;;14.29;69.30
75006;BME280;63553;51.814;4.600;2023-06-01T06:37:54;102567.88;;;13.94;67.08
75006;BME280;63553;51.814;4.600;2023-06-01T06:40:20;102569.88;;;14.26;66.31
75006;BME280;63553;51.814;4.600;2023-06-01T06:42:45;102575.59;;;14.99;65.30
75006;BME280;63553;51.814;4.600;2023-06-01T06:45:11;102575.94;;;13.58;68.03
75006;BME280;63553;51.814;4.600;2023-06-01T06:47:36;102576.50;;;13.79;67.21
75006;BME280;63553;51.814;4.600;2023-06-01T06:50:02;102575.16;;;15.06;64.36
75006;BME280;63553;51.814;4.600;2023-06-01T06:52:27;102569.91;;;14.07;67.43
75006;BME280;63553;51.814;4.600;2023-06-01T06:54:53;102566.38;;;15.89;62.74
75006;BME280;63553;51.814;4.600;2023-06-01T06:57:18;102574.53;;;16.57;60.59
75006;BME280;63553;51.814;4.600;2023-06-01T06:59:43;102572.69;;;16.75;59.85
75006;BME280;63553;51.814;4.600;2023-06-01T07:02:09;102581.91;;;15.73;61.58
75006;BME280;63553;51.814;4.600;2023-06-01T07:04:34;102579.25;;;14.67;64.92
75006;BME280;63553;51.814;4.600;2023-06-01T07:06:59;102583.38;;;15.29;63.89
75006;BME280;63553;51.814;4.600;2023-06-01T07:09:28;102583.50;;;15.11;63.83
75006;BME280;63553;51.814;4.600;2023-06-01T07:11:54;102588.44;;;14.22;65.35
75006;BME280;63553;51.814;4.600;2023-06-01T07:14:19;102581.34;;;16.20;59.92
75006;BME280;63553;51.814;4.600;2023-06-01T07:16:44;102583.75;;;15.91;61.52
75006;BME280;63553;51.814;4.600;2023-06-01T07:19:09;102582.09;;;17.49;57.97
75006;BME280;63553;51.814;4.600;2023-06-01T07:21:35;102582.97;;;17.18;57.96
75006;BME280;63553;51.814;4.600;2023-06-01T07:24:01;102576.75;;;15.25;62.08
75006;BME280;63553;51.814;4.600;2023-06-01T07:26:29;102574.00;;;15.75;62.15
75006;BME280;63553;51.814;4.600;2023-06-01T07:28:55;102593.78;;;15.29;62.91
75006;BME280;63553;51.814;4.600;2023-06-01T07:31:22;102592.38;;;14.85;63.44
75006;BME280;63553;51.814;4.600;2023-06-01T07:33:47;102583.59;;;15.60;60.72
75006;BME280;63553;51.814;4.600;2023-06-01T07:36:13;102575.25;;;15.82;61.73
75006;BME280;63553;51.814;4.600;2023-06-01T07:38:39;102588.88;;;14.93;63.99
75006;BME280;63553;51.814;4.600;2023-06-01T07:41:05;102577.38;;;16.88;58.89
75006;BME280;63553;51.814;4.600;2023-06-01T07:43:31;102584.88;;;16.70;58.67
75006;BME280;63553;51.814;4.600;2023-06-01T07:45:56;102585.13;;;15.39;62.40
75006;BME280;63553;51.814;4.600;2023-06-01T07:48:22;102593.69;;;14.61;65.01
75006;BME280;63553;51.814;4.600;2023-06-01T07:50:47;102589.44;;;17.19;58.41
75006;BME280;63553;51.814;4.600;2023-06-01T07:53:13;102576.91;;;17.34;56.88
75006;BME280;63553;51.814;4.600;2023-06-01T07:55:38;102585.06;;;14.71;64.04
75006;BME280;63553;51.814;4.600;2023-06-01T07:58:04;102584.31;;;16.59;59.28
75006;BME280;63553;51.814;4.600;2023-06-01T08:00:30;102590.13;;;16.05;60.97
75006;BME280;63553;51.814;4.600;2023-06-01T08:02:55;102575.34;;;15.77;61.33
75006;BME280;63553;51.814;4.600;2023-06-01T08:05:24;102589.97;;;16.99;58.77
75006;BME280;63553;51.814;4.600;2023-06-01T08:07:49;102584.38;;;17.47;57.92
75006;BME280;63553;51.814;4.600;2023-06-01T08:10:15;102592.09;;;17.81;56.32
75006;BME280;63553;51.814;4.600;2023-06-01T08:12:40;102580.84;;;18.06;55.74
75006;BME280;63553;51.814;4.600;2023-06-01T08:15:08;102586.03;;;17.48;57.69
75006;BME280;63553;51.814;4.600;2023-06-01T08:17:35;102585.09;;;16.82;57.87
75006;BME280;63553;51.814;4.600;2023-06-01T08:20:00;102585.06;;;16.29;59.63
75006;BME280;63553;51.814;4.600;2023-06-01T08:22:26;102581.34;;;17.26;57.67
75006;BME280;63553;51.814;4.600;2023-06-01T08:24:52;102573.84;;;17.61;57.25
75006;BME280;63553;51.814;4.600;2023-06-01T08:27:22;102568.13;;;17.35;57.52
75006;BME280;63553;51.814;4.600;2023-06-01T08:29:48;102565.25;;;19.53;52.16
75006;BME280;63553;51.814;4.600;2023-06-01T08:32:14;102577.72;;;18.16;53.83
75006;BME280;63553;51.814;4.600;2023-06-01T08:34:40;102576.06;;;17.81;54.60
75006;BME280;63553;51.814;4.600;2023-06-01T08:37:06;102563.16;;;20.66;49.15
75006;BME280;63553;51.814;4.600;2023-06-01T08:39:31;102561.56;;;21.01;48.14
75006;BME280;63553;51.814;4.600;2023-06-01T08:42:11;102559.16;;;20.67;48.61
75006;BME280;63553;51.814;4.600;2023-06-01T08:44:40;102570.22;;;20.60;48.31
75006;BME280;63553;51.814;4.600;2023-06-01T08:47:06;102572.44;;;18.49;52.99
75006;BME280;63553;51.814;4.600;2023-06-01T08:49:34;102572.09;;;19.44;51.38
75006;BME280;63553;51.814;4.600;2023-06-01T08:52:02;102567.97;;;20.12;49.29
75006;BME280;63553;51.814;4.600;2023-06-01T08:54:28;102564.81;;;20.13;48.43
75006;BME280;63553;51.814;4.600;2023-06-01T08:56:59;102563.59;;;21.73;45.45
75006;BME280;63553;51.814;4.600;2023-06-01T08:59:25;102562.38;;;21.98;44.70
75006;BME280;63553;51.814;4.600;2023-06-01T09:01:52;102566.53;;;20.26;46.85
75006;BME280;63553;51.814;4.600;2023-06-01T09:04:18;102558.94;;;20.72;47.71
75006;BME280;63553;51.814;4.600;2023-06-01T09:06:43;102562.16;;;18.10;53.68
75006;BME280;63553;51.814;4.600;2023-06-01T09:09:08;102550.06;;;18.53;51.89
75006;BME280;63553;51.814;4.600;2023-06-01T09:11:37;102541.41;;;18.58;52.66
75006;BME280;63553;51.814;4.600;2023-06-01T09:14:19;102543.78;;;19.61;49.91
75006;BME280;63553;51.814;4.600;2023-06-01T09:16:46;102542.00;;;20.84;47.43
75006;BME280;63553;51.814;4.600;2023-06-01T09:19:11;102532.50;;;21.49;46.08
75006;BME280;63553;51.814;4.600;2023-06-01T09:21:36;102543.66;;;19.19;50.01
75006;BME280;63553;51.814;4.600;2023-06-01T09:24:19;102541.53;;;21.91;45.32
75006;BME280;63553;51.814;4.600;2023-06-01T09:26:50;102548.22;;;21.98;44.76
75006;BME280;63553;51.814;4.600;2023-06-01T09:29:15;102541.69;;;22.38;44.05
75006;BME280;63553;51.814;4.600;2023-06-01T09:31:45;102546.69;;;22.01;44.35
75006;BME280;63553;51.814;4.600;2023-06-01T09:34:13;102542.03;;;22.64;42.97
75006;BME280;63553;51.814;4.600;2023-06-01T09:36:43;102535.03;;;22.46;43.80
75006;BME280;63553;51.814;4.600;2023-06-01T09:39:10;102534.94;;;23.01;42.62
75006;BME280;63553;51.814;4.600;2023-06-01T09:44:35;102534.03;;;21.46;44.57
75006;BME280;63553;51.814;4.600;2023-06-01T09:47:02;102538.66;;;22.03;44.36
75006;BME280;63553;51.814;4.600;2023-06-01T09:49:32;102538.28;;;21.28;45.66
75006;BME280;63553;51.814;4.600;2023-06-01T09:54:30;102539.56;;;21.43;45.77
75006;BME280;63553;51.814;4.600;2023-06-01T09:57:00;102528.00;;;21.60;45.62
75006;BME280;63553;51.814;4.600;2023-06-01T09:59:27;102532.09;;;21.75;45.04
75006;BME280;63553;51.814;4.600;2023-06-01T10:01:55;102525.25;;;21.88;44.62
75006;BME280;63553;51.814;4.600;2023-06-01T10:04:24;102529.56;;;21.97;44.35
75006;BME280;63553;51.814;4.600;2023-06-01T10:06:51;102526.03;;;22.00;44.42
75006;BME280;63553;51.814;4.600;2023-06-01T10:09:18;102526.53;;;21.78;44.90
75006;BME280;63553;51.814;4.600;2023-06-01T10:11:46;102520.19;;;19.36;49.50
75006;BME280;63553;51.814;4.600;2023-06-01T10:14:12;102529.66;;;18.30;51.22
75006;BME280;63553;51.814;4.600;2023-06-01T10:16:38;102518.69;;;19.68;49.72
75006;BME280;63553;51.814;4.600;2023-06-01T10:19:06;102516.53;;;20.06;49.13
75006;BME280;63553;51.814;4.600;2023-06-01T10:21:33;102513.34;;;19.87;49.41
75006;BME280;63553;51.814;4.600;2023-06-01T10:23:58;102516.44;;;20.35;48.85
75006;BME280;63553;51.814;4.600;2023-06-01T10:26:26;102517.56;;;18.38;51.54
75006;BME280;63553;51.814;4.600;2023-06-01T10:28:53;102521.31;;;19.14;50.98
75006;BME280;63553;51.814;4.600;2023-06-01T10:31:40;102513.94;;;19.80;49.63
75006;BME280;63553;51.814;4.600;2023-06-01T10:34:10;102499.28;;;19.08;50.01
75006;BME280;63553;51.814;4.600;2023-06-01T10:41:48;102504.69;;;18.83;52.41
75006;BME280;63553;51.814;4.600;2023-06-01T10:52:33;102518.41;;;18.21;53.76
75006;BME280;63553;51.814;4.600;2023-06-01T10:57:40;102501.53;;;19.73;50.90
75006;BME280;63553;51.814;4.600;2023-06-01T11:05:50;102502.81;;;19.25;51.69
75006;BME280;63553;51.814;4.600;2023-06-01T11:18:51;102498.16;;;18.45;52.69
75006;BME280;63553;51.814;4.600;2023-06-01T11:23:51;102486.94;;;19.50;51.33
75006;BME280;63553;51.814;4.600;2023-06-01T11:26:21;102491.22;;;18.43;52.76
75006;BME280;63553;51.814;4.600;2023-06-01T11:28:50;102492.44;;;18.16;53.25
75006;BME280;63553;51.814;4.600;2023-06-01T11:31:16;102488.03;;;18.44;52.85
75006;BME280;63553;51.814;4.600;2023-06-01T11:33:49;102487.56;;;19.26;50.66
75006;BME280;63553;51.814;4.600;2023-06-01T11:36:21;102481.31;;;19.12;51.76
75006;BME280;63553;51.814;4.600;2023-06-01T11:38:49;102486.34;;;19.07;50.14
75006;BME280;63553;51.814;4.600;2023-06-01T11:41:14;102474.06;;;19.11;50.01
75006;BME280;63553;51.814;4.600;2023-06-01T11:43:40;102478.91;;;19.31;50.56
75006;BME280;63553;51.814;4.600;2023-06-01T11:46:07;102481.69;;;19.81;50.06
75006;BME280;63553;51.814;4.600;2023-06-01T11:48:33;102486.06;;;19.00;50.19
75006;BME280;63553;51.814;4.600;2023-06-01T11:51:00;102471.28;;;19.03;49.59
75006;BME280;63553;51.814;4.600;2023-06-01T11:53:26;102484.38;;;19.28;50.14
75006;BME280;63553;51.814;4.600;2023-06-01T11:55:53;102481.63;;;18.90;51.58
75006;BME280;63553;51.814;4.600;2023-06-01T11:58:26;102478.19;;;19.43;50.33
75006;BME280;63553;51.814;4.600;2023-06-01T12:00:57;102476.22;;;17.96;52.33
75006;BME280;63553;51.814;4.600;2023-06-01T12:03:23;102467.28;;;17.94;53.02
75006;BME280;63553;51.814;4.600;2023-06-01T12:05:51;102470.19;;;19.16;51.00
75006;BME280;63553;51.814;4.600;2023-06-01T12:08:26;102477.88;;;19.07;50.36
75006;BME280;63553;51.814;4.600;2023-06-01T12:10:53;102478.16;;;18.21;51.97
75006;BME280;63553;51.814;4.600;2023-06-01T12:13:19;102468.50;;;18.56;51.85
75006;BME280;63553;51.814;4.600;2023-06-01T12:15:46;102474.91;;;19.32;51.17
75006;BME280;63553;51.814;4.600;2023-06-01T12:18:12;102473.59;;;18.63;51.83
75006;BME280;63553;51.814;4.600;2023-06-01T12:20:39;102470.94;;;17.60;52.72
75006;BME280;63553;51.814;4.600;2023-06-01T12:25:34;102464.88;;;18.39;52.41
75006;BME280;63553;51.814;4.600;2023-06-01T12:30:26;102463.81;;;18.69;51.72
75006;BME280;63553;51.814;4.600;2023-06-01T12:32:51;102463.94;;;19.39;50.99
75006;BME280;63553;51.814;4.600;2023-06-01T12:35:17;102468.81;;;19.72;50.46
75006;BME280;63553;51.814;4.600;2023-06-01T12:37:43;102464.34;;;19.00;50.37
75006;BME280;63553;51.814;4.600;2023-06-01T12:40:09;102461.81;;;19.28;50.86
75006;BME280;63553;51.814;4.600;2023-06-01T12:42:39;102467.88;;;19.18;50.02
75006;BME280;63553;51.814;4.600;2023-06-01T12:45:06;102458.69;;;19.29;49.89
75006;BME280;63553;51.814;4.600;2023-06-01T12:47:39;102460.78;;;19.62;50.61
75006;BME280;63553;51.814;4.600;2023-06-01T12:50:09;102453.63;;;18.85;50.11
75006;BME280;63553;51.814;4.600;2023-06-01T12:52:36;102456.44;;;18.85;50.30
75006;BME280;63553;51.814;4.600;2023-06-01T12:55:02;102459.44;;;18.33;51.30
75006;BME280;63553;51.814;4.600;2023-06-01T12:57:29;102455.22;;;18.95;50.82
75006;BME280;63553;51.814;4.600;2023-06-01T12:59:55;102449.13;;;19.42;50.97
75006;BME280;63553;51.814;4.600;2023-06-01T13:02:20;102451.03;;;19.09;51.42
75006;BME280;63553;51.814;4.600;2023-06-01T13:04:46;102453.97;;;18.83;51.40
75006;BME280;63553;51.814;4.600;2023-06-01T13:07:11;102448.69;;;19.32;51.66
75006;BME280;63553;51.814;4.600;2023-06-01T13:09:37;102455.09;;;18.45;52.58
75006;BME280;63553;51.814;4.600;2023-06-01T13:12:02;102452.81;;;18.84;50.49
75006;BME280;63553;51.814;4.600;2023-06-01T13:14:29;102451.31;;;18.49;51.78
75006;BME280;63553;51.814;4.600;2023-06-01T13:16:55;102447.44;;;18.92;51.37
75006;BME280;63553;51.814;4.600;2023-06-01T13:19:20;102458.25;;;18.52;52.04
75006;BME280;63553;51.814;4.600;2023-06-01T13:21:46;102453.13;;;18.37;52.09
75006;BME280;63553;51.814;4.600;2023-06-01T13:24:12;102429.72;;;18.91;51.25
75006;BME280;63553;51.814;4.600;2023-06-01T13:26:37;102450.41;;;19.24;51.30
75006;BME280;63553;51.814;4.600;2023-06-01T13:29:03;102446.22;;;18.72;50.54
75006;BME280;63553;51.814;4.600;2023-06-01T13:31:32;102442.56;;;18.71;50.65
75006;BME280;63553;51.814;4.600;2023-06-01T13:33:58;102445.47;;;18.54;50.41
75006;BME280;63553;51.814;4.600;2023-06-01T13:36:23;102421.38;;;18.95;50.67
75006;BME280;63553;51.814;4.600;2023-06-01T13:38:49;102427.19;;;18.69;50.97